createdAt,value
2023-04-17T00:01:41.158Z,100521.38
2023-04-17T00:04:13.162Z,100513.56
2023-04-17T00:06:44.285Z,100520.91
2023-04-17T00:09:12.622Z,100544.94
2023-04-17T00:11:40.706Z,100533.63
2023-04-17T00:14:07.356Z,100535.81
2023-04-17T00:16:34.052Z,100548.81
2023-04-17T00:19:00.708Z,100533.22
2023-04-17T00:21:29.970Z,100529.88
2023-04-17T00:23:56.934Z,100535.69
2023-04-17T00:26:23.869Z,100550.16
2023-04-17T00:28:51.813Z,100552.19
2023-04-17T00:31:18.514Z,100561.41
2023-04-17T00:33:46.332Z,100556.31
2023-04-17T00:36:13.889Z,100546.91
2023-04-17T00:38:41.895Z,100552.19
2023-04-17T00:41:08.699Z,100561.19
2023-04-17T00:43:36.582Z,100560.53
2023-04-17T00:46:05.373Z,100565.19
2023-04-17T00:48:35.598Z,100564.38
2023-04-17T00:51:03.330Z,100564.84
2023-04-17T00:53:31.845Z,100564.84
2023-04-17T00:56:04.948Z,100581.69
2023-04-17T00:58:32.218Z,100572.69
2023-04-17T01:00:59.639Z,100554.00
2023-04-17T01:03:26.462Z,100552.66
2023-04-17T01:05:54.520Z,100556.63
2023-04-17T01:08:24.316Z,100562.88
2023-04-17T01:10:50.914Z,100564.06
2023-04-17T01:13:17.623Z,100549.69
2023-04-17T01:15:45.926Z,100548.06
2023-04-17T01:18:13.856Z,100523.84
2023-04-17T01:20:42.277Z,100527.91
2023-04-17T01:23:09.168Z,100524.31
2023-04-17T01:25:37.494Z,100517.75
2023-04-17T01:28:04.274Z,100518.50
2023-04-17T01:30:31.131Z,100530.03
2023-04-17T01:32:57.892Z,100539.94
2023-04-17T01:35:24.644Z,100541.75
2023-04-17T01:37:51.240Z,100534.72
2023-04-17T01:40:18.045Z,100513.19
2023-04-17T01:42:44.684Z,100499.63
2023-04-17T01:45:11.677Z,100502.91
2023-04-17T01:47:38.352Z,100510.31
2023-04-17T01:50:05.904Z,100516.88
2023-04-17T01:52:33.904Z,100523.38
2023-04-17T01:55:00.606Z,100534.94
2023-04-17T01:57:28.230Z,100543.38
2023-04-17T01:59:54.836Z,100537.38
2023-04-17T02:02:21.806Z,100526.31
2023-04-17T02:04:48.482Z,100525.09
2023-04-17T02:07:15.160Z,100518.09
2023-04-17T02:09:41.817Z,100516.66
2023-04-17T02:12:08.480Z,100508.25
2023-04-17T02:14:35.106Z,100515.44
2023-04-17T02:17:03.811Z,100522.56
2023-04-17T02:19:31.883Z,100525.09
2023-04-17T02:21:58.514Z,100537.63
2023-04-17T02:24:26.613Z,100532.47
2023-04-17T02:26:54.331Z,100538.50
2023-04-17T02:29:20.958Z,100527.84
2023-04-17T02:31:47.673Z,100512.44
2023-04-17T02:34:14.688Z,100513.63
2023-04-17T02:36:41.427Z,100503.63
2023-04-17T02:39:09.393Z,100519.44
2023-04-17T02:41:36.096Z,100517.78
2023-04-17T02:44:04.414Z,100520.66
2023-04-17T02:46:31.056Z,100517.81
2023-04-17T02:48:57.723Z,100519.03
2023-04-17T02:51:25.635Z,100528.03
2023-04-17T02:53:52.253Z,100509.59
2023-04-17T02:56:20.012Z,100498.31
2023-04-17T02:58:46.682Z,100494.41
2023-04-17T03:01:13.469Z,100495.84
2023-04-17T03:03:41.281Z,100487.06
2023-04-17T03:06:09.814Z,100482.13
2023-04-17T03:08:39.842Z,100482.94
2023-04-17T03:11:06.668Z,100473.50
2023-04-17T03:13:36.743Z,100470.63
2023-04-17T03:16:04.768Z,100470.03
2023-04-17T03:18:31.864Z,100456.09
2023-04-17T03:20:58.654Z,100480.91
2023-04-17T03:23:25.287Z,100481.72
2023-04-17T03:25:52.104Z,100486.44
2023-04-17T03:28:18.800Z,100500.59
2023-04-17T03:30:45.449Z,100479.69
2023-04-17T03:33:12.138Z,100475.75
2023-04-17T03:35:38.837Z,100487.47
2023-04-17T03:38:05.492Z,100478.88
2023-04-17T03:40:33.667Z,100471.66
2023-04-17T03:43:01.589Z,100469.81
2023-04-17T03:45:28.248Z,100473.94
2023-04-17T03:47:56.053Z,100464.28
2023-04-17T03:50:22.677Z,100463.84
2023-04-17T03:52:50.483Z,100460.78
2023-04-17T03:55:17.549Z,100469.63
2023-04-17T03:57:45.311Z,100471.47
2023-04-17T04:00:13.653Z,100489.94
2023-04-17T04:02:40.532Z,100488.91
2023-04-17T04:05:07.736Z,100480.50
2023-04-17T04:07:34.419Z,100486.22
2023-04-17T04:10:01.555Z,100474.75
2023-04-17T04:12:29.731Z,100473.53
2023-04-17T04:14:56.355Z,100473.91
2023-04-17T04:17:22.976Z,100462.81
2023-04-17T04:19:49.654Z,100458.72
2023-04-17T04:22:16.759Z,100447.22
2023-04-17T04:24:44.815Z,100443.28
2023-04-17T04:27:13.867Z,100451.28
2023-04-17T04:29:45.626Z,100447.16
2023-04-17T04:32:13.724Z,100439.91
2023-04-17T04:34:42.124Z,100458.66
2023-04-17T04:37:08.821Z,100486.59
2023-04-17T04:39:39.025Z,100497.22
2023-04-17T04:42:09.916Z,100500.09
2023-04-17T04:44:39.698Z,100487.78
2023-04-17T04:47:06.412Z,100481.22
2023-04-17T04:49:33.262Z,100485.69
2023-04-17T04:51:59.883Z,100486.97
2023-04-17T04:54:26.532Z,100488.56
2023-04-17T04:56:54.346Z,100479.25
2023-04-17T04:59:21.146Z,100487.50
2023-04-17T05:01:48.035Z,100479.72
2023-04-17T05:04:14.910Z,100471.63
2023-04-17T05:06:41.873Z,100478.97
2023-04-17T05:09:09.076Z,100487.66
2023-04-17T05:11:36.368Z,100488.00
2023-04-17T05:14:02.974Z,100488.94
2023-04-17T05:16:29.628Z,100476.06
2023-04-17T05:18:56.478Z,100478.03
2023-04-17T05:21:24.382Z,100472.97
2023-04-17T05:23:51.055Z,100481.88
2023-04-17T05:26:19.306Z,100491.16
2023-04-17T05:28:45.982Z,100477.47
2023-04-17T05:31:12.812Z,100480.13
2023-04-17T05:33:39.604Z,100483.84
2023-04-17T05:36:07.493Z,100485.56
2023-04-17T05:38:35.306Z,100487.69
2023-04-17T05:41:02.151Z,100494.84
2023-04-17T05:43:28.906Z,100491.00
2023-04-17T05:45:55.633Z,100492.41
2023-04-17T05:48:22.907Z,100498.94
2023-04-17T05:50:49.606Z,100505.03
2023-04-17T05:53:17.818Z,100508.13
2023-04-17T05:55:44.505Z,100513.84
2023-04-17T06:00:43.454Z,100514.13
2023-04-17T06:03:10.622Z,100524.44
2023-04-17T06:05:37.527Z,100519.81
2023-04-17T06:08:05.750Z,100526.69
2023-04-17T06:10:34.886Z,100522.41
2023-04-17T06:13:02.831Z,100550.69
2023-04-17T06:15:29.463Z,100587.91
2023-04-17T06:17:57.518Z,100589.78
2023-04-17T06:20:24.203Z,100639.75
2023-04-17T06:22:50.939Z,100663.03
2023-04-17T06:25:18.283Z,100673.03
2023-04-17T06:27:44.936Z,100698.78
2023-04-17T06:30:11.914Z,100714.00
2023-04-17T06:32:42.527Z,100736.78
2023-04-17T06:35:10.888Z,100762.38
2023-04-17T06:37:37.533Z,100781.56
2023-04-17T06:40:04.507Z,100780.47
2023-04-17T06:42:35.142Z,100811.44
2023-04-17T06:45:02.204Z,100834.31
2023-04-17T06:47:30.329Z,100837.88
2023-04-17T06:49:59.843Z,100858.56
2023-04-17T06:52:28.301Z,100868.66
2023-04-17T06:54:55.462Z,100860.56
2023-04-17T06:57:23.770Z,100903.59
2023-04-17T06:59:50.458Z,100906.94
2023-04-17T07:02:17.581Z,100911.13
2023-04-17T07:04:44.425Z,100919.69
2023-04-17T07:07:11.221Z,100930.81
2023-04-17T07:09:38.477Z,100931.59
2023-04-17T07:12:05.527Z,100948.09
2023-04-17T07:14:33.691Z,100945.44
2023-04-17T07:17:00.637Z,100951.19
2023-04-17T07:19:28.800Z,100961.47
2023-04-17T07:21:56.355Z,100966.03
2023-04-17T07:24:22.976Z,100967.66
2023-04-17T07:26:49.670Z,100972.16
2023-04-17T07:29:16.499Z,100975.47
2023-04-17T07:31:44.948Z,100980.88
2023-04-17T07:34:11.681Z,100981.88
2023-04-17T07:36:39.565Z,100992.59
2023-04-17T07:39:08.060Z,101004.22
2023-04-17T07:41:34.711Z,100999.16
2023-04-17T07:44:03.556Z,101013.34
2023-04-17T07:46:30.282Z,101014.59
2023-04-17T07:48:57.077Z,101003.88
2023-04-17T07:51:25.111Z,101030.22
2023-04-17T07:53:51.707Z,101029.63
2023-04-17T07:56:19.724Z,101032.19
2023-04-17T07:58:46.482Z,101035.75
2023-04-17T08:01:13.677Z,101033.50
2023-04-17T08:03:41.954Z,101037.19
2023-04-17T08:06:08.812Z,101039.22
2023-04-17T08:08:36.340Z,101045.63
2023-04-17T08:11:04.117Z,101042.97
2023-04-17T08:13:33.898Z,101038.72
2023-04-17T08:16:00.500Z,101041.19
2023-04-17T08:18:28.478Z,101040.94
2023-04-17T08:20:55.126Z,101046.72
2023-04-17T08:23:21.750Z,101039.44
2023-04-17T08:25:48.456Z,101032.81
2023-04-17T08:28:15.032Z,101038.38
2023-04-17T08:30:41.789Z,101045.44
2023-04-17T08:33:09.528Z,101035.28
2023-04-17T08:35:37.482Z,101036.97
2023-04-17T08:38:05.215Z,101038.16
2023-04-17T08:40:31.823Z,101033.03
2023-04-17T08:43:02.640Z,101029.91
2023-04-17T08:45:29.260Z,101021.34
2023-04-17T08:47:56.087Z,101027.31
2023-04-17T08:50:23.357Z,101032.28
2023-04-17T08:52:52.015Z,101034.75
2023-04-17T08:55:24.814Z,101034.75
2023-04-17T08:58:05.079Z,101036.19
2023-04-17T09:00:36.940Z,101031.03
2023-04-17T09:03:07.816Z,101040.03
2023-04-17T09:05:37.083Z,101037.88
2023-04-17T09:08:21.965Z,101039.50
2023-04-17T09:10:51.025Z,101040.91
2023-04-17T09:13:19.825Z,101048.22
2023-04-17T09:15:48.472Z,101048.25
2023-04-17T09:18:24.865Z,101045.53
2023-04-17T09:20:51.827Z,101050.97
2023-04-17T09:23:19.129Z,101047.72
2023-04-17T09:25:46.288Z,101053.16
2023-04-17T09:28:16.119Z,101056.41
2023-04-17T09:30:43.557Z,101056.69
2023-04-17T09:33:11.891Z,101054.53
2023-04-17T09:35:40.030Z,101049.91
2023-04-17T09:38:07.289Z,101064.56
2023-04-17T09:40:39.898Z,101064.03
2023-04-17T09:43:11.618Z,101062.38
2023-04-17T09:45:41.823Z,101067.28
2023-04-17T09:48:12.824Z,101065.66
2023-04-17T09:50:41.231Z,101073.25
2023-04-17T09:53:08.586Z,101073.28
2023-04-17T09:55:37.870Z,101066.19
2023-04-17T09:58:07.453Z,101080.88
2023-04-17T10:00:36.517Z,101078.69
2023-04-17T10:03:03.462Z,101074.09
2023-04-17T10:05:33.232Z,101079.78
2023-04-17T10:08:02.402Z,101068.63
2023-04-17T10:10:34.397Z,101068.31
2023-04-17T10:13:03.020Z,101068.31
2023-04-17T10:15:30.562Z,101073.22
2023-04-17T10:18:21.007Z,101066.06
2023-04-17T10:20:48.885Z,101070.72
2023-04-17T10:23:33.951Z,101076.94
2023-04-17T10:26:25.439Z,101079.75
2023-04-17T10:28:54.345Z,101075.06
2023-04-17T10:31:24.160Z,101078.25
2023-04-17T10:33:52.718Z,101082.88
2023-04-17T10:36:38.071Z,101081.16
2023-04-17T10:39:20.731Z,101077.41
2023-04-17T10:42:06.103Z,101092.63
2023-04-17T10:44:42.906Z,101081.09
2023-04-17T10:50:00.944Z,101090.94
2023-04-17T10:52:34.663Z,101086.41
2023-04-17T10:55:20.866Z,101094.22
2023-04-17T10:57:56.866Z,101084.88
2023-04-17T11:00:59.586Z,101093.59
2023-04-17T11:03:26.746Z,101086.81
2023-04-17T11:05:54.039Z,101097.31
2023-04-17T11:08:21.299Z,101101.53
2023-04-17T11:10:54.368Z,101102.91
2023-04-17T11:13:22.229Z,101100.94
2023-04-17T11:15:50.865Z,101090.81
2023-04-17T11:18:18.448Z,101104.38
2023-04-17T11:20:46.148Z,101094.72
2023-04-17T11:23:13.699Z,101092.56
2023-04-17T11:25:43.036Z,101102.31
2023-04-17T11:28:11.754Z,101098.03
2023-04-17T11:30:46.012Z,101097.28
2023-04-17T11:33:12.760Z,101105.78
2023-04-17T11:35:41.815Z,101101.47
2023-04-17T11:38:14.602Z,101098.09
2023-04-17T11:40:47.328Z,101104.16
2023-04-17T11:43:15.284Z,101101.31
2023-04-17T11:45:44.853Z,101104.81
2023-04-17T11:48:13.987Z,101104.81
2023-04-17T11:50:42.887Z,101106.06
2023-04-17T11:53:13.687Z,101113.72
2023-04-17T11:55:40.333Z,101115.81
2023-04-17T11:58:08.816Z,101111.66
2023-04-17T12:00:38.531Z,101109.72
2023-04-17T12:03:41.857Z,101106.00
2023-04-17T12:06:12.085Z,101111.56
2023-04-17T12:08:50.149Z,101106.13
2023-04-17T12:11:23.969Z,101113.09
2023-04-17T12:13:51.935Z,101106.31
2023-04-17T12:16:19.126Z,101116.25
2023-04-17T12:18:46.376Z,101116.25
2023-04-17T12:21:15.239Z,101112.97
2023-04-17T12:23:41.969Z,101122.50
2023-04-17T12:26:09.667Z,101127.50
2023-04-17T12:28:37.641Z,101120.06
2023-04-17T12:31:04.794Z,101117.25
2023-04-17T12:33:33.543Z,101117.88
2023-04-17T12:36:01.553Z,101125.53
2023-04-17T12:38:28.697Z,101136.72
2023-04-17T12:40:55.314Z,101129.72
2023-04-17T12:43:22.016Z,101124.09
2023-04-17T12:45:49.960Z,101132.97
2023-04-17T12:48:23.125Z,101129.34
2023-04-17T12:50:49.754Z,101113.75
2023-04-17T12:53:17.506Z,101119.88
2023-04-17T12:55:44.502Z,101122.44
2023-04-17T12:58:13.753Z,101129.94
2023-04-17T13:00:43.784Z,101117.53
2023-04-17T13:03:11.856Z,101117.72
2023-04-17T13:05:38.960Z,101128.91
2023-04-17T13:08:05.758Z,101120.47
2023-04-17T13:10:34.301Z,101130.72
2023-04-17T13:13:02.287Z,101126.63
2023-04-17T13:15:28.894Z,101124.31
2023-04-17T13:17:56.966Z,101124.84
2023-04-17T13:20:23.738Z,101126.78
2023-04-17T13:22:50.441Z,101128.19
2023-04-17T13:25:17.261Z,101128.53
2023-04-17T13:27:43.958Z,101136.69
2023-04-17T13:30:11.024Z,101139.00
2023-04-17T13:32:40.589Z,101125.50
2023-04-17T13:35:09.658Z,101133.06
2023-04-17T13:37:36.397Z,101131.56
2023-04-17T13:40:07.387Z,101131.50
2023-04-17T13:42:34.002Z,101132.47
2023-04-17T13:45:01.460Z,101131.44
2023-04-17T13:47:29.461Z,101124.97
2023-04-17T13:49:56.412Z,101127.28
2023-04-17T13:52:24.323Z,101135.63
2023-04-17T13:54:50.936Z,101127.66
2023-04-17T13:57:21.756Z,101113.47
2023-04-17T13:59:48.352Z,101127.25
2023-04-17T14:02:15.121Z,101134.19
2023-04-17T14:04:41.957Z,101129.63
2023-04-17T14:07:08.710Z,101128.97
2023-04-17T14:09:36.658Z,101136.16
2023-04-17T14:12:04.325Z,101133.47
2023-04-17T14:14:32.096Z,101126.47
2023-04-17T14:16:58.656Z,101126.78
2023-04-17T14:19:25.545Z,101130.84
2023-04-17T14:21:52.136Z,101134.28
2023-04-17T14:24:18.775Z,101128.75
2023-04-17T14:26:46.624Z,101122.00
2023-04-17T14:29:14.913Z,101120.22
2023-04-17T14:31:41.742Z,101126.38
2023-04-17T14:34:08.571Z,101123.94
2023-04-17T14:36:35.928Z,101120.63
2023-04-17T14:39:02.754Z,101134.25
2023-04-17T14:41:31.684Z,101134.22
2023-04-17T14:43:58.266Z,101138.25
2023-04-17T14:46:24.970Z,101131.38
2023-04-17T14:48:55.743Z,101136.59
2023-04-17T14:51:27.087Z,101133.19
2023-04-17T14:53:54.880Z,101144.25
2023-04-17T14:56:22.031Z,101135.53
2023-04-17T14:58:48.851Z,101139.84
2023-04-17T15:01:15.722Z,101145.00
2023-04-17T15:03:47.323Z,101141.59
2023-04-17T15:06:15.006Z,101146.78
2023-04-17T15:08:41.822Z,101142.13
2023-04-17T15:11:08.832Z,101152.25
2023-04-17T15:13:35.993Z,101146.94
2023-04-17T15:16:03.498Z,101147.38
2023-04-17T15:18:30.816Z,101157.78
2023-04-17T15:20:57.519Z,101154.72
2023-04-17T15:23:26.555Z,101160.19
2023-04-17T15:25:57.491Z,101160.84
2023-04-17T15:28:24.974Z,101152.75
2023-04-17T15:30:51.583Z,101160.22
2023-04-17T15:33:19.421Z,101158.28
2023-04-17T15:35:46.054Z,101161.41
2023-04-17T15:38:14.256Z,101166.34
2023-04-17T15:40:41.016Z,101167.31
2023-04-17T15:43:07.660Z,101171.09
2023-04-17T15:45:34.309Z,101174.03
2023-04-17T15:48:01.805Z,101172.63
2023-04-17T15:50:30.294Z,101178.19
2023-04-17T15:52:58.266Z,101180.84
2023-04-17T15:55:26.060Z,101186.50
2023-04-17T15:57:52.721Z,101180.94
2023-04-17T16:00:19.761Z,101188.50
2023-04-17T16:02:47.948Z,101181.31
2023-04-17T16:05:15.959Z,101181.81
2023-04-17T16:07:43.876Z,101186.59
2023-04-17T16:10:14.743Z,101185.53
2023-04-17T16:12:43.304Z,101184.72
2023-04-17T16:15:17.729Z,101175.56
2023-04-17T16:17:45.732Z,101174.16
2023-04-17T16:20:14.735Z,101175.56
2023-04-17T16:22:41.325Z,101180.78
2023-04-17T16:25:08.502Z,101171.47
2023-04-17T16:27:35.192Z,101187.38
2023-04-17T16:30:03.038Z,101187.56
2023-04-17T16:32:31.789Z,101196.31
2023-04-17T16:34:58.545Z,101200.69
2023-04-17T16:37:25.208Z,101202.75
2023-04-17T16:39:51.784Z,101201.06
2023-04-17T16:42:18.472Z,101195.97
2023-04-17T16:44:46.038Z,101197.78
2023-04-17T16:47:14.331Z,101194.25
2023-04-17T16:49:42.082Z,101190.53
2023-04-17T16:52:08.822Z,101192.66
2023-04-17T16:54:35.622Z,101185.31
2023-04-17T16:57:02.293Z,101192.91
2023-04-17T16:59:28.908Z,101194.72
2023-04-17T17:01:55.683Z,101192.69
2023-04-17T17:04:23.808Z,101196.78
2023-04-17T17:06:50.739Z,101207.81
2023-04-17T17:09:17.423Z,101202.19
2023-04-17T17:11:44.043Z,101199.81
2023-04-17T17:14:10.673Z,101200.69
2023-04-17T17:16:37.466Z,101197.84
2023-04-17T17:19:05.666Z,101210.41
2023-04-17T17:21:32.518Z,101211.16
2023-04-17T17:23:59.158Z,101208.53
2023-04-17T17:26:25.883Z,101213.78
2023-04-17T17:28:53.497Z,101211.81
2023-04-17T17:31:20.525Z,101216.91
2023-04-17T17:33:51.042Z,101222.91
2023-04-17T17:36:17.732Z,101217.19
2023-04-17T17:38:45.886Z,101224.03
2023-04-17T17:41:12.523Z,101221.31
2023-04-17T17:43:39.275Z,101229.47
2023-04-17T17:46:05.973Z,101229.41
2023-04-17T17:48:34.775Z,101233.78
2023-04-17T17:51:01.367Z,101240.75
2023-04-17T17:53:29.462Z,101235.06
2023-04-17T17:55:57.106Z,101238.00
2023-04-17T17:58:24.338Z,101245.56
2023-04-17T18:00:52.534Z,101251.53
2023-04-17T18:03:19.406Z,101251.66
2023-04-17T18:05:47.106Z,101256.91
2023-04-17T18:08:14.618Z,101261.00
2023-04-17T18:10:41.369Z,101258.53
2023-04-17T18:13:08.316Z,101262.78
2023-04-17T18:15:36.273Z,101264.25
2023-04-17T18:18:03.159Z,101268.00
2023-04-17T18:20:29.890Z,101277.38
2023-04-17T18:22:57.996Z,101263.75
2023-04-17T18:25:24.740Z,101261.88
2023-04-17T18:27:52.528Z,101252.91
2023-04-17T18:30:19.127Z,101256.44
2023-04-17T18:32:47.325Z,101254.16
2023-04-17T18:35:13.989Z,101262.06
2023-04-17T18:37:43.283Z,101270.56
2023-04-17T18:40:11.650Z,101264.78
2023-04-17T18:42:38.628Z,101273.38
2023-04-17T18:45:07.226Z,101272.72
2023-04-17T18:47:35.624Z,101272.03
2023-04-17T18:50:05.524Z,101275.25
2023-04-17T18:52:32.185Z,101268.72
2023-04-17T18:55:00.214Z,101259.63
2023-04-17T18:57:26.974Z,101272.06
2023-04-17T18:59:53.616Z,101270.03
2023-04-17T19:02:20.259Z,101266.06
2023-04-17T19:04:46.955Z,101273.78
2023-04-17T19:07:13.596Z,101258.13
2023-04-17T19:09:41.634Z,101264.34
2023-04-17T19:12:08.239Z,101263.06
2023-04-17T19:14:34.847Z,101265.22
2023-04-17T19:17:01.613Z,101263.34
2023-04-17T19:19:28.230Z,101265.66
2023-04-17T19:21:56.009Z,101251.59
2023-04-17T19:24:22.732Z,101264.50
2023-04-17T19:26:49.460Z,101270.81
2023-04-17T19:29:17.314Z,101259.53
2023-04-17T19:31:44.817Z,101268.34
2023-04-17T19:34:11.546Z,101264.13
2023-04-17T19:36:38.269Z,101252.97
2023-04-17T19:39:04.973Z,101260.09
2023-04-17T19:41:31.665Z,101253.59
2023-04-17T19:43:58.256Z,101241.94
2023-04-17T19:46:26.956Z,101245.59
2023-04-17T19:48:54.141Z,101244.34
2023-04-17T19:51:20.891Z,101244.88
2023-04-17T19:53:48.089Z,101257.50
2023-04-17T19:56:15.807Z,101246.28
2023-04-17T19:58:42.709Z,101231.47
2023-04-17T20:01:09.498Z,101249.88
2023-04-17T20:03:38.429Z,101237.53
2023-04-17T20:06:05.440Z,101239.59
2023-04-17T20:08:33.157Z,101243.16
2023-04-17T20:11:00.009Z,101249.59
2023-04-17T20:13:28.056Z,101253.16
2023-04-17T20:15:54.715Z,101258.00
2023-04-17T20:18:21.412Z,101247.94
2023-04-17T20:20:48.072Z,101242.31
2023-04-17T20:23:14.703Z,101246.47
2023-04-17T20:25:42.397Z,101246.81
2023-04-17T20:28:10.899Z,101242.59
2023-04-17T20:30:37.574Z,101242.88
2023-04-17T20:33:05.757Z,101247.16
2023-04-17T20:35:32.425Z,101245.50
2023-04-17T20:37:59.426Z,101239.44
2023-04-17T20:40:26.054Z,101247.56
2023-04-17T20:42:52.787Z,101241.13
2023-04-17T20:45:19.548Z,101243.19
2023-04-17T20:47:56.416Z,101236.31
2023-04-17T20:50:26.855Z,101233.84
2023-04-17T20:52:53.481Z,101248.00
2023-04-17T20:55:20.383Z,101242.16
2023-04-17T20:57:48.764Z,101243.50
2023-04-17T21:00:16.241Z,101234.47
2023-04-17T21:02:43.851Z,101230.47
2023-04-17T21:05:10.773Z,101227.78
2023-04-17T21:07:37.992Z,101220.59
2023-04-17T21:10:05.236Z,101219.56
2023-04-17T21:12:33.987Z,101225.72
2023-04-17T21:15:00.743Z,101223.13
2023-04-17T21:17:27.490Z,101225.84
2023-04-17T21:19:56.010Z,101220.66
2023-04-17T21:22:22.782Z,101225.22
2023-04-17T21:24:50.749Z,101214.09
2023-04-17T21:27:18.579Z,101213.88
2023-04-17T21:29:45.212Z,101222.16
2023-04-17T21:32:12.967Z,101213.06
2023-04-17T21:34:41.233Z,101220.47
2023-04-17T21:37:07.840Z,101226.03
2023-04-17T21:39:35.791Z,101217.59
2023-04-17T21:42:02.521Z,101231.19
2023-04-17T21:44:30.570Z,101229.94
2023-04-17T21:46:57.615Z,101239.44
2023-04-17T21:49:24.667Z,101228.31
2023-04-17T21:51:52.435Z,101235.31
2023-04-17T21:54:19.054Z,101240.19
2023-04-17T21:56:47.282Z,101231.75
2023-04-17T21:59:15.667Z,101224.16
2023-04-17T22:01:42.430Z,101231.53
2023-04-17T22:04:09.130Z,101215.88
2023-04-17T22:06:39.589Z,101215.94
2023-04-17T22:09:06.194Z,101226.38
2023-04-17T22:11:34.055Z,101217.09
2023-04-17T22:14:00.766Z,101223.56
2023-04-17T22:16:27.437Z,101220.44
2023-04-17T22:18:54.472Z,101229.03
2023-04-17T22:21:21.085Z,101233.59
2023-04-17T22:23:48.960Z,101240.91
2023-04-17T22:26:15.845Z,101226.44
2023-04-17T22:28:43.722Z,101229.22
2023-04-17T22:31:11.962Z,101224.44
2023-04-17T22:33:38.575Z,101220.28
2023-04-17T22:36:06.552Z,101217.88
2023-04-17T22:38:33.137Z,101218.47
2023-04-17T22:40:59.820Z,101221.06
2023-04-17T22:43:27.889Z,101215.75
2023-04-17T22:45:54.576Z,101214.56
2023-04-17T22:48:24.497Z,101215.72
2023-04-17T22:50:52.837Z,101208.94
2023-04-17T22:53:19.420Z,101212.88
2023-04-17T22:55:46.277Z,101209.97
2023-04-17T22:58:12.979Z,101200.31
2023-04-17T23:00:39.618Z,101211.28
2023-04-17T23:03:06.447Z,101204.56
2023-04-17T23:05:33.130Z,101191.38
2023-04-17T23:07:59.727Z,101195.78
2023-04-17T23:10:27.598Z,101194.28
2023-04-17T23:12:54.188Z,101184.19
2023-04-17T23:15:21.181Z,101179.56
2023-04-17T23:17:47.856Z,101186.47
2023-04-17T23:20:14.617Z,101179.44
2023-04-17T23:22:41.287Z,101174.31
2023-04-17T23:25:08.423Z,101177.81
2023-04-17T23:27:36.250Z,101174.47
2023-04-17T23:30:03.599Z,101162.63
2023-04-17T23:32:31.627Z,101170.91
2023-04-17T23:34:58.317Z,101178.94
2023-04-17T23:37:25.519Z,101177.03
2023-04-17T23:39:52.165Z,101190.06
2023-04-17T23:42:18.785Z,101190.41
2023-04-17T23:44:45.516Z,101198.31
2023-04-17T23:47:13.996Z,101195.91
2023-04-17T23:49:40.951Z,101206.53
2023-04-17T23:52:07.618Z,101199.22
2023-04-17T23:54:34.240Z,101198.84
2023-04-17T23:57:02.430Z,101197.06
2023-04-17T23:59:29.054Z,101191.09
